首页
METAR-TAF:

METAR-TAF

机场 :

特里布万国际机场

加德滿都, 尼泊尔

纬度: 27-42N, 经度: 085-22E, 海拔: 1337米

当前天气观测

该预报发布于25分钟前的17:20 UTC
风速2节,风向多变
温度 20°C
湿度 88%
气压 1013 hPa
能見度: 6000
少量云层高于2000英尺
散云层高于3000英尺

METAR: VNKT 241720Z VRB02KT 6000 FEW020 SCT030 20/18 Q1013 NOSIG

时间: 23:30 (17:45 UTC)

预报

该预报发布于6小时和45分钟前的11:00 UTC
预报有效从24日的 12点(UTC)到 25日的 12点(UTC)
风速8节,风向西
能見度: 7000
少量云层高于2000英尺
散云层高于3000英尺
多云层高于10000英尺
几率 40%
从 24日的 12点(UTC)到 24日的 18点(UTC)
风速12节,风向西转西北,有时为24节阵风
能見度: 5000
少量云层高于2500英尺, 积雨云.
雷暴, 小雨
成为
从 24日的 15点(UTC)到 24日的 16点(UTC)
风速3节,风向东转东南
能見度: 6000
少量云层高于1500英尺
散云层高于10000英尺
成为
从 25日的 00点(UTC)到 25日的 02点(UTC)
风速2节,风向多变
能見度: 3000
少量云层高于1500英尺
散云层高于3000英尺
轻雾
成为
从 25日的 03点(UTC)到 25日的 04点(UTC)
风速3节,风向南转南东
能見度: 5000
少量云层高于2000英尺
散云层高于10000英尺
成为
从 25日的 07点(UTC)到 25日的 09点(UTC)
风速8节,风向西
能見度: 7000
少量云层高于2000英尺
散云层高于10000英尺
几率 40%
从 25日的 06点(UTC)到 25日的 12点(UTC)
能見度: 5000
少量云层高于2500英尺, 积雨云.
散云层高于3000英尺
多云层高于10000英尺
雷暴, 小雨

TAF: VNKT 241100Z 2412/2512 26008KT 7000 FEW020 SCT030 BKN100 PROB40 2412/2418 30012G24KT 5000 -TSRA FEW025CB BECMG 2415/2416 11003KT 6000 FEW015 SCT100 BECMG 2500/2502 VRB02KT 3000 BR FEW015 SCT030 BECMG 2503/2504 15003KT 5000 HZ FEW020 SCT100 BECMG 2507/2509 26008KT 7000 FEW020 SCT100 PROB40 2506/2512 5000 -TSRA FEW025CB SCT030 BKN100

超过4000个机场的气象观测和天气预报(METAR&TAF报告)。

可查询的气象台以黄色和红色小点在地图上表示。

将鼠标移到小点上方,可查看气象台名称。

然后点击查看天气观测和预报。

如需切换地图:点击带黑十字的绿色按钮放大地图;点击带横线的绿色按钮缩小地图;或者点击绿色箭头查看邻近地区的地图。


METAR-TAF: